Valor — WDD8691 — position and weather

sailwx.info

Track history (hours):
 
Tides and Currents Weather Stations Pressure Air Temp Water Temp Dewpoint Dewpoint Depression Visibility Wind Speed Wind Dir Waves Ship Positions

Valor

Owner: Crowley Marine Services, Seattle, WA. More information available from US FCC via Universal Licensing System and Coast Guard Vessel Documentation Center.

Last reported at 2017-Jun-27 22:30 UTC. Time now 2017-Jun-27 22:37 UTC.
Position N 37°48' W 122°24'.

Length 8 m; draft 5.5 m.

Type: Tug. MMSI: 367301480.

Date/timePositionNaut miles runAvg speedWind from/ knotsBaromVisibWave heightAir tempDewpointWater temp
2017-Jun-27 22:30N 37°48' W 122°24'0 0.0
2017-Jun-27 22:00N 37°48' W 122°24'0 0.0
2017-Jun-27 21:30N 37°48' W 122°24'0 0.0
2017-Jun-27 21:00N 37°48' W 122°24'0 0.0
2017-Jun-27 20:30N 37°48' W 122°24'0 0.0
2017-Jun-27 20:00N 37°48' W 122°24'0 0.0
2017-Jun-27 19:30N 37°48' W 122°24'0 0.0
2017-Jun-27 19:00N 37°48' W 122°24'0 0.0
2017-Jun-27 18:30N 37°48' W 122°24'0 0.0
2017-Jun-27 18:00N 37°48' W 122°24'0 0.0
2017-Jun-27 17:30N 37°48' W 122°24'0 0.0
2017-Jun-27 17:00N 37°48' W 122°24'0 0.0
2017-Jun-27 16:30N 37°48' W 122°24'0 0.0
2017-Jun-27 16:00N 37°48' W 122°24'0 0.0
2017-Jun-27 15:30N 37°48' W 122°24'2 4.3
2017-Jun-27 15:00N 37°46' W 122°23'2 3.3
2017-Jun-27 14:30N 37°48' W 122°23'1 0.6
2017-Jun-27 13:30N 37°48' W 122°24'1 1.8
2017-Jun-27 13:00N 37°49' W 122°25'1 1.8
2017-Jun-27 12:31N 37°48' W 122°24'0 0.2
2017-Jun-27 12:00N 37°48' W 122°24'0 0.0
2017-Jun-27 11:30N 37°48' W 122°24'0 0.0
2017-Jun-27 11:00N 37°48' W 122°24'0 0.0
2017-Jun-27 10:30N 37°48' W 122°24'0 0.0
2017-Jun-27 10:00N 37°48' W 122°24'0 0.0
2017-Jun-27 09:30N 37°48' W 122°24'0 0.0
2017-Jun-27 09:00N 37°48' W 122°24'0 0.0
2017-Jun-27 08:30N 37°48' W 122°24'0 0.0
2017-Jun-27 08:00N 37°48' W 122°24'0 0.0
2017-Jun-27 07:30N 37°48' W 122°24'3 6.0
2017-Jun-27 07:00N 37°51' W 122°24'4 7.8
2017-Jun-27 06:30N 37°55' W 122°25'1 1.4
2017-Jun-27 06:00N 37°55' W 122°25'0 0.1
2017-Jun-27 05:30N 37°55' W 122°25'0 0.2
2017-Jun-27 05:00N 37°55' W 122°25'0 0.0
2017-Jun-27 04:30N 37°55' W 122°25'0 0.0
2017-Jun-27 04:00N 37°55' W 122°25'0 0.0
2017-Jun-27 03:30N 37°55' W 122°25'1 1.3
2017-Jun-27 03:00N 37°56' W 122°25'5 9.6
2017-Jun-27 02:30N 38°00' W 122°24'5 9.3
2017-Jun-27 02:00N 38°03' W 122°19'4 1.0
2017-Jun-26 21:43N 38°04' W 122°14'310.4
2017-Jun-26 21:27N 38°04' W 122°17'3 0.4
2017-Jun-26 12:27N 38°04' W 122°13'4 7.8
2017-Jun-26 12:00N 38°03' W 122°18'6 9.9
2017-Jun-26 11:25N 38°01' W 122°24'4 9.6
2017-Jun-26 10:59N 37°57' W 122°27'5 9.4
2017-Jun-26 10:30N 37°53' W 122°25'4 7.3
2017-Jun-26 10:00N 37°49' W 122°25'2 4.7
2017-Jun-26 09:30N 37°49' W 122°28'2 3.5
2017-Jun-26 09:00N 37°48' W 122°30'1 1.6
2017-Jun-26 08:30N 37°48' W 122°29'4 7.1
2017-Jun-26 08:00N 37°49' W 122°25'1 0.5
2017-Jun-26 06:12N 37°48' W 122°24'0 0.0
2017-Jun-26 05:59N 37°48' W 122°24'0 0.0
2017-Jun-26 05:30N 37°48' W 122°24'0 0.0
2017-Jun-26 05:00N 37°48' W 122°24'0 0.0
2017-Jun-26 04:30N 37°48' W 122°24'0 0.1
2017-Jun-26 04:00N 37°48' W 122°24'0 0.1
2017-Jun-26 03:30N 37°48' W 122°24'0 0.0
2017-Jun-26 03:00N 37°48' W 122°24'0 0.0
2017-Jun-26 02:30N 37°48' W 122°24'0 0.0
2017-Jun-26 02:00N 37°48' W 122°24'3 5.7
2017-Jun-26 01:30N 37°49' W 122°20'1 1.0
2017-Jun-26 01:00N 37°49' W 122°20'0 0.4
2017-Jun-26 00:30N 37°49' W 122°20'2 3.6
2017-Jun-26 00:00N 37°48' W 122°22'0 0.9
2017-Jun-25 23:30N 37°48' W 122°21'0 1.0
2017-Jun-25 23:00N 37°48' W 122°21'0 0.0
2017-Jun-25 22:30N 37°48' W 122°21'0 0.1
2017-Jun-25 22:00N 37°48' W 122°21'0 0.0
2017-Jun-25 21:30N 37°48' W 122°21'0 0.0
2017-Jun-25 21:00N 37°48' W 122°21'0 0.0
2017-Jun-25 20:30N 37°48' W 122°21'0 0.0
2017-Jun-25 20:00N 37°48' W 122°21'0 0.0
2017-Jun-25 19:30N 37°48' W 122°21'0 0.0
2017-Jun-25 19:00N 37°48' W 122°21'0 0.0
2017-Jun-25 18:30N 37°48' W 122°21'0 0.0
2017-Jun-25 18:00N 37°48' W 122°21'0 0.0
2017-Jun-25 17:30N 37°48' W 122°21'0 0.0
2017-Jun-25 17:00N 37°48' W 122°21'0 0.0
2017-Jun-25 16:30N 37°48' W 122°21'0 0.0
2017-Jun-25 16:00N 37°48' W 122°21'0 0.1
2017-Jun-25 15:31N 37°48' W 122°21'0 0.0
2017-Jun-25 15:00N 37°48' W 122°21'0 0.0
2017-Jun-25 14:01N 37°48' W 122°21'0 0.4
2017-Jun-25 13:31N 37°48' W 122°21'1 2.5
2017-Jun-25 13:00N 37°48' W 122°19'0 0.5
2017-Jun-25 12:31N 37°48' W 122°19'0 0.1
2017-Jun-25 12:00N 37°48' W 122°19'2 4.7
2017-Jun-25 11:31N 37°48' W 122°22'3 6.7
2017-Jun-25 11:00N 37°51' W 122°24'510.8
2017-Jun-25 10:30N 37°57' W 122°26'510.1
2017-Jun-25 10:00N 38°01' W 122°23'4 8.5
2017-Jun-25 09:30N 38°03' W 122°18'5 7.5
2017-Jun-25 08:48N 38°03' W 122°11'2 7.1
2017-Jun-25 08:28N 38°02' W 122°09'7 2.2
2017-Jun-25 05:23N 38°03' W 122°17'2 4.5
2017-Jun-25 04:56N 38°04' W 122°15'0 0.0
2017-Jun-25 00:54N 38°04' W 122°15'1 0.3
2017-Jun-24 21:33N 38°04' W 122°13'4 9.0
2017-Jun-24 21:10N 38°03' W 122°18'1 9.4
2017-Jun-24 21:00N 38°03' W 122°20'611.7
2017-Jun-24 20:30N 37°59' W 122°25'611.6
2017-Jun-24 20:00N 37°54' W 122°26'510.6
2017-Jun-24 19:31N 37°49' W 122°23'4 8.2
2017-Jun-24 19:00N 37°46' W 122°20'0 0.2
2017-Jun-24 18:30N 37°45' W 122°20'3 5.8
2017-Jun-24 18:00N 37°48' W 122°21'0 0.0
2017-Jun-24 17:30N 37°48' W 122°21'0 0.0
2017-Jun-24 17:00N 37°48' W 122°21'1 1.7
2017-Jun-24 16:30N 37°48' W 122°20'0 0.9
2017-Jun-24 16:00N 37°48' W 122°19'0 0.9
2017-Jun-24 15:31N 37°48' W 122°18'1 1.8
2017-Jun-24 15:00N 37°48' W 122°17'4 3.9
2017-Jun-24 14:00N 37°48' W 122°22'4 8.1
2017-Jun-24 13:31N 37°44' W 122°21'0 0.1
2017-Jun-24 13:01N 37°44' W 122°21'3 6.1
2017-Jun-24 12:30N 37°47' W 122°22'2 3.8
2017-Jun-24 12:00N 37°48' W 122°24'0 0.0
2017-Jun-24 11:30N 37°48' W 122°24'0 0.0
2017-Jun-24 11:00N 37°48' W 122°24'0 0.0
2017-Jun-24 10:30N 37°48' W 122°24'0 0.0
2017-Jun-24 10:00N 37°48' W 122°24'0 0.0
2017-Jun-24 09:30N 37°48' W 122°24'0 0.0
2017-Jun-24 09:00N 37°48' W 122°24'0 0.0
2017-Jun-24 08:30N 37°48' W 122°24'0 0.0
2017-Jun-24 08:00N 37°48' W 122°24'0 0.0
2017-Jun-24 07:30N 37°48' W 122°24'0 0.0
2017-Jun-24 07:00N 37°48' W 122°24'0 0.0
2017-Jun-24 06:30N 37°48' W 122°24'0 0.0
2017-Jun-24 06:00N 37°48' W 122°24'0 0.0
2017-Jun-24 05:30N 37°48' W 122°24'0 0.0
2017-Jun-24 05:00N 37°48' W 122°24'0 0.0
2017-Jun-24 04:30N 37°48' W 122°24'0 0.0
2017-Jun-24 04:00N 37°48' W 122°24'0 0.0
2017-Jun-24 03:30N 37°48' W 122°24'0 0.0
2017-Jun-24 03:00N 37°48' W 122°24'0 0.0
2017-Jun-24 02:30N 37°48' W 122°24'0 0.0
2017-Jun-24 02:00N 37°48' W 122°24'0 0.1
2017-Jun-24 01:30N 37°48' W 122°24'1 1.3
2017-Jun-24 01:00N 37°49' W 122°24'4 8.5
2017-Jun-24 00:30N 37°53' W 122°25'510.1
2017-Jun-24 00:01N 37°58' W 122°26'5 9.6
2017-Jun-23 23:30N 38°02' W 122°22'4 8.6
2017-Jun-23 23:00N 38°03' W 122°17'9 6.4
2017-Jun-23 21:35N 38°03' W 122°05'0 0.0
2017-Jun-23 21:29N 38°03' W 122°05'2 0.7
2017-Jun-23 18:20N 38°02' W 122°08'4 2.0
2017-Jun-23 16:15N 38°04' W 122°13'3 6.6
2017-Jun-23 15:51N 38°03' W 122°17'6 7.2
2017-Jun-23 15:01N 38°01' W 122°23'0 5.8
2017-Jun-23 15:00N 38°01' W 122°23'7 7.0
2017-Jun-23 14:00N 37°54' W 122°25'4 7.8
2017-Jun-23 13:31N 37°50' W 122°24'4 8.5
2017-Jun-23 13:01N 37°48' W 122°20'0 0.6
2017-Jun-23 12:30N 37°48' W 122°19'1 1.8
2017-Jun-23 12:00N 37°48' W 122°20'2 3.4
2017-Jun-23 11:31N 37°48' W 122°22'2 3.0
2017-Jun-23 11:01N 37°48' W 122°21'0 0.0
2017-Jun-23 10:31N 37°48' W 122°21'0 0.2
2017-Jun-23 10:00N 37°48' W 122°20'0 0.1
2017-Jun-23 09:30N 37°48' W 122°20'0 0.3
2017-Jun-23 09:01N 37°48' W 122°21'3 5.2
2017-Jun-23 08:30N 37°48' W 122°24'0 0.0
2017-Jun-23 08:00N 37°48' W 122°24'0 0.0
2017-Jun-23 07:30N 37°48' W 122°24'0 0.0
2017-Jun-23 07:01N 37°48' W 122°24'0 0.0
2017-Jun-23 06:30N 37°48' W 122°24'0 0.0
2017-Jun-23 06:00N 37°48' W 122°24'0 0.0
2017-Jun-23 05:30N 37°48' W 122°24'0 0.0
2017-Jun-23 05:00N 37°48' W 122°24'0 0.0
2017-Jun-23 04:30N 37°48' W 122°24'0 0.0
2017-Jun-23 04:00N 37°48' W 122°24'0 0.0
2017-Jun-23 03:30N 37°48' W 122°24'0 0.0
2017-Jun-23 03:00N 37°48' W 122°24'1 2.3
2017-Jun-23 02:30N 37°49' W 122°24'5 9.9
2017-Jun-23 02:00N 37°54' W 122°25'1 2.3
2017-Jun-23 01:30N 37°55' W 122°25'0 0.3
2017-Jun-23 01:00N 37°55' W 122°25'2 4.4
2017-Jun-23 00:30N 37°53' W 122°25'4 8.6
2017-Jun-23 00:00N 37°49' W 122°23'3 6.9
2017-Jun-22 23:30N 37°46' W 122°21'2 4.4
2017-Jun-22 23:01N 37°48' W 122°23'5 9.5
2017-Jun-22 22:30N 37°49' W 122°29'2 3.9
2017-Jun-22 22:00N 37°48' W 122°30'1 1.6
2017-Jun-22 21:31N 37°48' W 122°29'1 2.7
2017-Jun-22 21:00N 37°49' W 122°29'4 7.8
2017-Jun-22 20:30N 37°48' W 122°24'0 0.0
2017-Jun-22 20:00N 37°48' W 122°24'0 0.0
2017-Jun-22 19:30N 37°48' W 122°24'0 0.0
2017-Jun-22 19:00N 37°48' W 122°24'0 0.0
2017-Jun-22 18:30N 37°48' W 122°24'0 0.0
2017-Jun-22 18:00N 37°48' W 122°24'4 8.1
2017-Jun-22 17:30N 37°52' W 122°25'3 6.8
2017-Jun-22 17:00N 37°56' W 122°25'0 0.6
2017-Jun-22 16:29N 37°56' W 122°25'1 1.1
2017-Jun-22 16:00N 37°55' W 122°25'0 0.0
2017-Jun-22 15:30N 37°55' W 122°25'0 0.0
2017-Jun-22 14:59N 37°55' W 122°25'6 6.4
2017-Jun-22 14:00N 37°49' W 122°22'1 2.9
2017-Jun-22 13:31N 37°49' W 122°20'0 0.2
2017-Jun-22 13:00N 37°49' W 122°20'0 0.1
2017-Jun-22 12:30N 37°49' W 122°20'2 4.2
2017-Jun-22 12:00N 37°49' W 122°23'4 7.6
2017-Jun-22 11:30N 37°52' W 122°25'3 5.5
2017-Jun-22 11:00N 37°55' W 122°25'0 0.0
2017-Jun-22 10:30N 37°55' W 122°25'0 0.0
2017-Jun-22 10:00N 37°55' W 122°25'0 0.0
2017-Jun-22 09:30N 37°55' W 122°25'0 0.0
2017-Jun-22 09:00N 37°55' W 122°25'0 0.0
2017-Jun-22 08:30N 37°55' W 122°25'0 0.0
2017-Jun-22 08:00N 37°55' W 122°25'0 0.0
2017-Jun-22 07:30N 37°55' W 122°25'1 1.7
2017-Jun-22 07:00N 37°55' W 122°25'4 8.3
2017-Jun-22 06:30N 37°51' W 122°25'4 7.1
2017-Jun-22 06:00N 37°49' W 122°29'1 1.3
2017-Jun-22 05:30N 37°49' W 122°30'5 9.0
2017-Jun-22 05:00N 37°50' W 122°24'1 2.0
2017-Jun-22 04:30N 37°50' W 122°23'0 0.2
2017-Jun-22 04:00N 37°49' W 122°23'2 4.6
2017-Jun-22 03:30N 37°51' W 122°25'5 9.3
2017-Jun-22 03:00N 37°56' W 122°27'5 9.2
2017-Jun-22 02:30N 38°00' W 122°25'5 9.9
2017-Jun-22 02:00N 38°03' W 122°20'5 9.7
2017-Jun-22 01:30N 38°04' W 122°14'4 8.6
2017-Jun-22 01:00N 38°02' W 122°09'4 0.4
2017-Jun-21 15:12N 38°04' W 122°13'4 7.1
2017-Jun-21 14:41N 38°03' W 122°18'6 7.5
2017-Jun-21 13:56N 38°00' W 122°24'4 7.9
2017-Jun-21 13:27N 37°57' W 122°26'4 8.1
2017-Jun-21 13:00N 37°53' W 122°25'4 7.3
2017-Jun-21 12:30N 37°50' W 122°24'2 3.4
2017-Jun-21 12:00N 37°48' W 122°24'3 6.4
2017-Jun-21 11:31N 37°49' W 122°20'0 0.2
2017-Jun-21 11:00N 37°49' W 122°20'0 0.8
2017-Jun-21 10:31N 37°49' W 122°20'3 5.9
2017-Jun-21 10:00N 37°51' W 122°23'5 9.4
2017-Jun-21 09:30N 37°55' W 122°25'3 5.7
2017-Jun-21 09:00N 37°55' W 122°22'0 0.1
2017-Jun-21 08:30N 37°55' W 122°22'1 2.7
2017-Jun-21 08:00N 37°54' W 122°24'2 3.7
2017-Jun-21 07:30N 37°53' W 122°25'4 8.3
2017-Jun-21 07:00N 37°50' W 122°28'2 4.4
2017-Jun-21 06:31N 37°48' W 122°30'0 0.8
2017-Jun-21 06:00N 37°48' W 122°30'0 0.8
2017-Jun-21 05:30N 37°49' W 122°29'3 5.7
2017-Jun-21 05:00N 37°49' W 122°26'4 7.7
2017-Jun-21 04:31N 37°48' W 122°21'1 1.5
2017-Jun-21 04:01N 37°49' W 122°20'0 0.1
2017-Jun-21 03:30N 37°49' W 122°20'0 0.0
2017-Jun-21 03:00N 37°49' W 122°20'0 0.0
2017-Jun-21 02:30N 37°49' W 122°20'0 0.1
2017-Jun-21 02:00N 37°49' W 122°20'0 0.1
2017-Jun-21 01:30N 37°49' W 122°20'0 0.1
2017-Jun-21 01:00N 37°49' W 122°20'0 0.0
2017-Jun-21 00:30N 37°49' W 122°20'0 0.1
2017-Jun-21 00:00N 37°49' W 122°20'0 0.0
2017-Jun-20 23:30N 37°49' W 122°20'0 0.0
2017-Jun-20 23:00N 37°49' W 122°20'0 0.1
2017-Jun-20 22:30N 37°49' W 122°20'0 0.1
2017-Jun-20 22:00N 37°49' W 122°20'0 0.1
2017-Jun-20 21:30N 37°49' W 122°20'0 0.1
2017-Jun-20 21:00N 37°49' W 122°20'0 0.1
2017-Jun-20 20:30N 37°49' W 122°20'0 0.1
2017-Jun-20 20:00N 37°49' W 122°20'0 0.0
2017-Jun-20 19:30N 37°49' W 122°20'0 0.0
2017-Jun-20 19:00N 37°49' W 122°20'0 0.1
2017-Jun-20 18:30N 37°49' W 122°20'1 1.3
2017-Jun-20 18:00N 37°48' W 122°21'3 6.5
2017-Jun-20 17:30N 37°51' W 122°24'4 7.1
2017-Jun-20 17:00N 37°54' W 122°25'3 6.3
2017-Jun-20 16:28N 37°57' W 122°26'2 3.6
2017-Jun-20 16:00N 37°59' W 122°25'2 4.3
2017-Jun-20 15:30N 38°01' W 122°24'3 5.0
2017-Jun-20 15:00N 38°02' W 122°21'3 5.7
2017-Jun-20 14:30N 38°03' W 122°18'0 0.1
2017-Jun-20 12:46N 38°03' W 122°18'2 7.0
2017-Jun-20 12:29N 38°02' W 122°20'4 7.5
2017-Jun-20 11:59N 38°00' W 122°24'4 7.5
2017-Jun-20 11:30N 37°57' W 122°26'4 7.9
2017-Jun-20 11:00N 37°53' W 122°25'4 8.6
2017-Jun-20 10:31N 37°50' W 122°22'2 3.3
2017-Jun-20 10:00N 37°48' W 122°20'0 0.6
2017-Jun-20 09:30N 37°49' W 122°20'0 0.0
2017-Jun-20 09:00N 37°49' W 122°20'0 0.1
2017-Jun-20 08:30N 37°49' W 122°20'0 0.1
2017-Jun-20 08:00N 37°49' W 122°20'0 0.1
2017-Jun-20 07:30N 37°49' W 122°20'0 0.1
2017-Jun-20 07:00N 37°49' W 122°20'1 1.3
2017-Jun-20 06:30N 37°48' W 122°20'1 1.8
2017-Jun-20 05:59N 37°48' W 122°19'1 1.3
2017-Jun-20 05:30N 37°48' W 122°18'1 1.3
2017-Jun-20 05:00N 37°48' W 122°17'2 3.5
2017-Jun-20 04:30N 37°48' W 122°20'2 4.4
2017-Jun-20 04:00N 37°48' W 122°22'1 2.9
2017-Jun-20 03:30N 37°48' W 122°21'0 0.0
2017-Jun-20 03:00N 37°48' W 122°21'0 0.0
2017-Jun-20 02:30N 37°48' W 122°21'0 0.0
2017-Jun-20 02:00N 37°48' W 122°21'1 1.5
2017-Jun-20 01:31N 37°49' W 122°20'0 0.0
2017-Jun-20 01:00N 37°49' W 122°20'2 3.9
2017-Jun-20 00:30N 37°48' W 122°22'2 3.1
2017-Jun-20 00:00N 37°49' W 122°20'0 0.1
2017-Jun-19 23:30N 37°49' W 122°20'0 0.0
2017-Jun-19 23:00N 37°49' W 122°20'0 0.1
2017-Jun-19 22:30N 37°49' W 122°20'0 0.0
2017-Jun-19 22:00N 37°49' W 122°20'0 0.1
2017-Jun-19 21:30N 37°49' W 122°20'0 0.0
2017-Jun-19 21:00N 37°49' W 122°20'0 0.1
2017-Jun-19 20:30N 37°49' W 122°20'0 0.0
2017-Jun-19 20:00N 37°49' W 122°20'0 0.1
2017-Jun-19 19:30N 37°49' W 122°20'0 0.0
2017-Jun-19 19:00N 37°49' W 122°20'0 0.1
2017-Jun-19 18:30N 37°49' W 122°20'0 0.0
2017-Jun-19 18:00N 37°49' W 122°20'0 0.1
2017-Jun-19 17:30N 37°49' W 122°20'0 0.6
2017-Jun-19 17:00N 37°48' W 122°20'0 0.3
2017-Jun-19 16:30N 37°49' W 122°20'0 0.8
2017-Jun-19 16:00N 37°49' W 122°20'3 5.6
2017-Jun-19 15:30N 37°47' W 122°22'3 5.1
2017-Jun-19 15:00N 37°44' W 122°21'2 3.4
2017-Jun-19 14:31N 37°43' W 122°21'10 9.6
2017-Jun-19 13:30N 37°48' W 122°31'1 1.2
2017-Jun-19 13:00N 37°48' W 122°30'3 5.3
2017-Jun-19 12:30N 37°49' W 122°27'4 7.9
2017-Jun-19 12:00N 37°48' W 122°22'2 3.2
2017-Jun-19 11:31N 37°49' W 122°20'0 0.1
2017-Jun-19 11:00N 37°49' W 122°20'0 0.1
2017-Jun-19 10:30N 37°49' W 122°20'0 0.1
2017-Jun-19 10:00N 37°49' W 122°20'0 0.0
2017-Jun-19 09:30N 37°49' W 122°20'0 0.1
2017-Jun-19 09:00N 37°49' W 122°20'0 0.1
2017-Jun-19 08:30N 37°49' W 122°20'0 0.0
2017-Jun-19 08:00N 37°49' W 122°20'0 0.0
2017-Jun-19 07:30N 37°49' W 122°20'0 0.0
2017-Jun-19 07:00N 37°49' W 122°20'0 0.1
2017-Jun-19 06:30N 37°49' W 122°20'0 0.0
2017-Jun-19 06:00N 37°49' W 122°20'0 0.1
2017-Jun-19 05:30N 37°49' W 122°20'0 0.1
2017-Jun-19 05:00N 37°49' W 122°20'0 0.0
2017-Jun-19 04:30N 37°49' W 122°20'0 0.1
2017-Jun-19 04:00N 37°49' W 122°20'0 0.0
2017-Jun-19 03:30N 37°49' W 122°20'0 0.0
2017-Jun-19 03:00N 37°49' W 122°20'0 0.1
2017-Jun-19 02:30N 37°49' W 122°20'0 0.0
2017-Jun-19 02:00N 37°49' W 122°20'0 0.1
2017-Jun-19 01:30N 37°49' W 122°20'0 0.0
2017-Jun-19 01:00N 37°49' W 122°20'0 0.1
2017-Jun-19 00:30N 37°49' W 122°20'0 0.1
2017-Jun-19 00:00N 37°49' W 122°20'0 0.5
2017-Jun-18 23:30N 37°49' W 122°20'0 0.2
2017-Jun-18 23:00N 37°49' W 122°20'0 0.1
2017-Jun-18 22:30N 37°49' W 122°20'0 0.1
2017-Jun-18 22:00N 37°49' W 122°20'0 0.4
2017-Jun-18 21:30N 37°49' W 122°20'0 0.1
2017-Jun-18 21:00N 37°49' W 122°20'0 0.0
2017-Jun-18 20:30N 37°49' W 122°20'0 0.0
2017-Jun-18 20:00N 37°49' W 122°20'1 2.7
2017-Jun-18 19:30N 37°48' W 122°22'4 7.8
2017-Jun-18 19:00N 37°52' W 122°24'5 9.3
2017-Jun-18 18:30N 37°56' W 122°26'5 8.9
2017-Jun-18 18:00N 38°00' W 122°24'4 8.5
2017-Jun-18 17:30N 38°03' W 122°20'4 7.9
2017-Jun-18 17:00N 38°04' W 122°15'0 0.0
2017-Jun-18 07:39N 38°04' W 122°15'6 3.1
2017-Jun-18 05:51N 38°02' W 122°08'  
Track history (hours):
 
Tides and Currents Weather Stations Pressure Air Temp Water Temp Dewpoint Dewpoint Depression Visibility Wind Speed Wind Dir Waves Ship Positions

Valor

Owner: Crowley Marine Services, Seattle, WA. More information available from US FCC via Universal Licensing System and Coast Guard Vessel Documentation Center.

Last reported at 2017-Jun-27 22:30 UTC. Time now 2017-Jun-27 22:37 UTC.
Position N 37°48' W 122°24'.

Length 8 m; draft 5.5 m.

Type: Tug. MMSI: 367301480.

Date/timePositionNaut miles runAvg speedWind from/ knotsBaromVisibWave heightAir tempDewpointWater temp
2017-Jun-27 22:30N 37°48' W 122°24'0 0.0
2017-Jun-27 22:00N 37°48' W 122°24'0 0.0
2017-Jun-27 21:30N 37°48' W 122°24'0 0.0
2017-Jun-27 21:00N 37°48' W 122°24'0 0.0
2017-Jun-27 20:30N 37°48' W 122°24'0 0.0
2017-Jun-27 20:00N 37°48' W 122°24'0 0.0
2017-Jun-27 19:30N 37°48' W 122°24'0 0.0
2017-Jun-27 19:00N 37°48' W 122°24'0 0.0
2017-Jun-27 18:30N 37°48' W 122°24'0 0.0
2017-Jun-27 18:00N 37°48' W 122°24'0 0.0
2017-Jun-27 17:30N 37°48' W 122°24'0 0.0
2017-Jun-27 17:00N 37°48' W 122°24'0 0.0
2017-Jun-27 16:30N 37°48' W 122°24'0 0.0
2017-Jun-27 16:00N 37°48' W 122°24'0 0.0
2017-Jun-27 15:30N 37°48' W 122°24'2 4.3
2017-Jun-27 15:00N 37°46' W 122°23'2 3.3
2017-Jun-27 14:30N 37°48' W 122°23'1 0.6
2017-Jun-27 13:30N 37°48' W 122°24'1 1.8
2017-Jun-27 13:00N 37°49' W 122°25'1 1.8
2017-Jun-27 12:31N 37°48' W 122°24'0 0.2
2017-Jun-27 12:00N 37°48' W 122°24'0 0.0
2017-Jun-27 11:30N 37°48' W 122°24'0 0.0
2017-Jun-27 11:00N 37°48' W 122°24'0 0.0
2017-Jun-27 10:30N 37°48' W 122°24'0 0.0
2017-Jun-27 10:00N 37°48' W 122°24'0 0.0
2017-Jun-27 09:30N 37°48' W 122°24'0 0.0
2017-Jun-27 09:00N 37°48' W 122°24'0 0.0
2017-Jun-27 08:30N 37°48' W 122°24'0 0.0
2017-Jun-27 08:00N 37°48' W 122°24'0 0.0
2017-Jun-27 07:30N 37°48' W 122°24'3 6.0
2017-Jun-27 07:00N 37°51' W 122°24'4 7.8
2017-Jun-27 06:30N 37°55' W 122°25'1 1.4
2017-Jun-27 06:00N 37°55' W 122°25'0 0.1
2017-Jun-27 05:30N 37°55' W 122°25'0 0.2
2017-Jun-27 05:00N 37°55' W 122°25'0 0.0
2017-Jun-27 04:30N 37°55' W 122°25'0 0.0
2017-Jun-27 04:00N 37°55' W 122°25'0 0.0
2017-Jun-27 03:30N 37°55' W 122°25'1 1.3
2017-Jun-27 03:00N 37°56' W 122°25'5 9.6
2017-Jun-27 02:30N 38°00' W 122°24'5 9.3
2017-Jun-27 02:00N 38°03' W 122°19'4 1.0
2017-Jun-26 21:43N 38°04' W 122°14'310.4
2017-Jun-26 21:27N 38°04' W 122°17'3 0.4
2017-Jun-26 12:27N 38°04' W 122°13'4 7.8
2017-Jun-26 12:00N 38°03' W 122°18'6 9.9
2017-Jun-26 11:25N 38°01' W 122°24'4 9.6
2017-Jun-26 10:59N 37°57' W 122°27'5 9.4
2017-Jun-26 10:30N 37°53' W 122°25'4 7.3
2017-Jun-26 10:00N 37°49' W 122°25'2 4.7
2017-Jun-26 09:30N 37°49' W 122°28'2 3.5
2017-Jun-26 09:00N 37°48' W 122°30'1 1.6
2017-Jun-26 08:30N 37°48' W 122°29'4 7.1
2017-Jun-26 08:00N 37°49' W 122°25'1 0.5
2017-Jun-26 06:12N 37°48' W 122°24'0 0.0
2017-Jun-26 05:59N 37°48' W 122°24'0 0.0
2017-Jun-26 05:30N 37°48' W 122°24'0 0.0
2017-Jun-26 05:00N 37°48' W 122°24'0 0.0
2017-Jun-26 04:30N 37°48' W 122°24'0 0.1
2017-Jun-26 04:00N 37°48' W 122°24'0 0.1
2017-Jun-26 03:30N 37°48' W 122°24'0 0.0
2017-Jun-26 03:00N 37°48' W 122°24'0 0.0
2017-Jun-26 02:30N 37°48' W 122°24'0 0.0
2017-Jun-26 02:00N 37°48' W 122°24'3 5.7
2017-Jun-26 01:30N 37°49' W 122°20'1 1.0
2017-Jun-26 01:00N 37°49' W 122°20'0 0.4
2017-Jun-26 00:30N 37°49' W 122°20'2 3.6
2017-Jun-26 00:00N 37°48' W 122°22'0 0.9
2017-Jun-25 23:30N 37°48' W 122°21'0 1.0
2017-Jun-25 23:00N 37°48' W 122°21'0 0.0
2017-Jun-25 22:30N 37°48' W 122°21'0 0.1
2017-Jun-25 22:00N 37°48' W 122°21'0 0.0
2017-Jun-25 21:30N 37°48' W 122°21'0 0.0
2017-Jun-25 21:00N 37°48' W 122°21'0 0.0
2017-Jun-25 20:30N 37°48' W 122°21'0 0.0
2017-Jun-25 20:00N 37°48' W 122°21'0 0.0
2017-Jun-25 19:30N 37°48' W 122°21'0 0.0
2017-Jun-25 19:00N 37°48' W 122°21'0 0.0
2017-Jun-25 18:30N 37°48' W 122°21'0 0.0
2017-Jun-25 18:00N 37°48' W 122°21'0 0.0
2017-Jun-25 17:30N 37°48' W 122°21'0 0.0
2017-Jun-25 17:00N 37°48' W 122°21'0 0.0
2017-Jun-25 16:30N 37°48' W 122°21'0 0.0
2017-Jun-25 16:00N 37°48' W 122°21'0 0.1
2017-Jun-25 15:31N 37°48' W 122°21'0 0.0
2017-Jun-25 15:00N 37°48' W 122°21'0 0.0
2017-Jun-25 14:01N 37°48' W 122°21'0 0.4
2017-Jun-25 13:31N 37°48' W 122°21'1 2.5
2017-Jun-25 13:00N 37°48' W 122°19'0 0.5
2017-Jun-25 12:31N 37°48' W 122°19'0 0.1
2017-Jun-25 12:00N 37°48' W 122°19'2 4.7
2017-Jun-25 11:31N 37°48' W 122°22'3 6.7
2017-Jun-25 11:00N 37°51' W 122°24'510.8
2017-Jun-25 10:30N 37°57' W 122°26'510.1
2017-Jun-25 10:00N 38°01' W 122°23'4 8.5
2017-Jun-25 09:30N 38°03' W 122°18'5 7.5
2017-Jun-25 08:48N 38°03' W 122°11'2 7.1
2017-Jun-25 08:28N 38°02' W 122°09'7 2.2
2017-Jun-25 05:23N 38°03' W 122°17'2 4.5
2017-Jun-25 04:56N 38°04' W 122°15'0 0.0
2017-Jun-25 00:54N 38°04' W 122°15'1 0.3
2017-Jun-24 21:33N 38°04' W 122°13'4 9.0
2017-Jun-24 21:10N 38°03' W 122°18'1 9.4
2017-Jun-24 21:00N 38°03' W 122°20'611.7
2017-Jun-24 20:30N 37°59' W 122°25'611.6
2017-Jun-24 20:00N 37°54' W 122°26'510.6
2017-Jun-24 19:31N 37°49' W 122°23'4 8.2
2017-Jun-24 19:00N 37°46' W 122°20'0 0.2
2017-Jun-24 18:30N 37°45' W 122°20'3 5.8
2017-Jun-24 18:00N 37°48' W 122°21'0 0.0
2017-Jun-24 17:30N 37°48' W 122°21'0 0.0
2017-Jun-24 17:00N 37°48' W 122°21'1 1.7
2017-Jun-24 16:30N 37°48' W 122°20'0 0.9
2017-Jun-24 16:00N 37°48' W 122°19'0 0.9
2017-Jun-24 15:31N 37°48' W 122°18'1 1.8
2017-Jun-24 15:00N 37°48' W 122°17'4 3.9
2017-Jun-24 14:00N 37°48' W 122°22'4 8.1
2017-Jun-24 13:31N 37°44' W 122°21'0 0.1
2017-Jun-24 13:01N 37°44' W 122°21'3 6.1
2017-Jun-24 12:30N 37°47' W 122°22'2 3.8
2017-Jun-24 12:00N 37°48' W 122°24'0 0.0
2017-Jun-24 11:30N 37°48' W 122°24'0 0.0
2017-Jun-24 11:00N 37°48' W 122°24'0 0.0
2017-Jun-24 10:30N 37°48' W 122°24'0 0.0
2017-Jun-24 10:00N 37°48' W 122°24'0 0.0
2017-Jun-24 09:30N 37°48' W 122°24'0 0.0
2017-Jun-24 09:00N 37°48' W 122°24'0 0.0
2017-Jun-24 08:30N 37°48' W 122°24'0 0.0
2017-Jun-24 08:00N 37°48' W 122°24'0 0.0
2017-Jun-24 07:30N 37°48' W 122°24'0 0.0
2017-Jun-24 07:00N 37°48' W 122°24'0 0.0
2017-Jun-24 06:30N 37°48' W 122°24'0 0.0
2017-Jun-24 06:00N 37°48' W 122°24'0 0.0
2017-Jun-24 05:30N 37°48' W 122°24'0 0.0
2017-Jun-24 05:00N 37°48' W 122°24'0 0.0
2017-Jun-24 04:30N 37°48' W 122°24'0 0.0
2017-Jun-24 04:00N 37°48' W 122°24'0 0.0
2017-Jun-24 03:30N 37°48' W 122°24'0 0.0
2017-Jun-24 03:00N 37°48' W 122°24'0 0.0
2017-Jun-24 02:30N 37°48' W 122°24'0 0.0
2017-Jun-24 02:00N 37°48' W 122°24'0 0.1
2017-Jun-24 01:30N 37°48' W 122°24'1 1.3
2017-Jun-24 01:00N 37°49' W 122°24'4 8.5
2017-Jun-24 00:30N 37°53' W 122°25'510.1
2017-Jun-24 00:01N 37°58' W 122°26'5 9.6
2017-Jun-23 23:30N 38°02' W 122°22'4 8.6
2017-Jun-23 23:00N 38°03' W 122°17'9 6.4
2017-Jun-23 21:35N 38°03' W 122°05'0 0.0
2017-Jun-23 21:29N 38°03' W 122°05'2 0.7
2017-Jun-23 18:20N 38°02' W 122°08'4 2.0
2017-Jun-23 16:15N 38°04' W 122°13'3 6.6
2017-Jun-23 15:51N 38°03' W 122°17'6 7.2
2017-Jun-23 15:01N 38°01' W 122°23'0 5.8
2017-Jun-23 15:00N 38°01' W 122°23'7 7.0
2017-Jun-23 14:00N 37°54' W 122°25'4 7.8
2017-Jun-23 13:31N 37°50' W 122°24'4 8.5
2017-Jun-23 13:01N 37°48' W 122°20'0 0.6
2017-Jun-23 12:30N 37°48' W 122°19'1 1.8
2017-Jun-23 12:00N 37°48' W 122°20'2 3.4
2017-Jun-23 11:31N 37°48' W 122°22'2 3.0
2017-Jun-23 11:01N 37°48' W 122°21'0 0.0
2017-Jun-23 10:31N 37°48' W 122°21'0 0.2
2017-Jun-23 10:00N 37°48' W 122°20'0 0.1
2017-Jun-23 09:30N 37°48' W 122°20'0 0.3
2017-Jun-23 09:01N 37°48' W 122°21'3 5.2
2017-Jun-23 08:30N 37°48' W 122°24'0 0.0
2017-Jun-23 08:00N 37°48' W 122°24'0 0.0
2017-Jun-23 07:30N 37°48' W 122°24'0 0.0
2017-Jun-23 07:01N 37°48' W 122°24'0 0.0
2017-Jun-23 06:30N 37°48' W 122°24'0 0.0
2017-Jun-23 06:00N 37°48' W 122°24'0 0.0
2017-Jun-23 05:30N 37°48' W 122°24'0 0.0
2017-Jun-23 05:00N 37°48' W 122°24'0 0.0
2017-Jun-23 04:30N 37°48' W 122°24'0 0.0
2017-Jun-23 04:00N 37°48' W 122°24'0 0.0
2017-Jun-23 03:30N 37°48' W 122°24'0 0.0
2017-Jun-23 03:00N 37°48' W 122°24'1 2.3
2017-Jun-23 02:30N 37°49' W 122°24'5 9.9
2017-Jun-23 02:00N 37°54' W 122°25'1 2.3
2017-Jun-23 01:30N 37°55' W 122°25'0 0.3
2017-Jun-23 01:00N 37°55' W 122°25'2 4.4
2017-Jun-23 00:30N 37°53' W 122°25'4 8.6
2017-Jun-23 00:00N 37°49' W 122°23'3 6.9
2017-Jun-22 23:30N 37°46' W 122°21'2 4.4
2017-Jun-22 23:01N 37°48' W 122°23'5 9.5
2017-Jun-22 22:30N 37°49' W 122°29'2 3.9
2017-Jun-22 22:00N 37°48' W 122°30'1 1.6
2017-Jun-22 21:31N 37°48' W 122°29'1 2.7
2017-Jun-22 21:00N 37°49' W 122°29'4 7.8
2017-Jun-22 20:30N 37°48' W 122°24'0 0.0
2017-Jun-22 20:00N 37°48' W 122°24'0 0.0
2017-Jun-22 19:30N 37°48' W 122°24'0 0.0
2017-Jun-22 19:00N 37°48' W 122°24'0 0.0
2017-Jun-22 18:30N 37°48' W 122°24'0 0.0
2017-Jun-22 18:00N 37°48' W 122°24'4 8.1
2017-Jun-22 17:30N 37°52' W 122°25'3 6.8
2017-Jun-22 17:00N 37°56' W 122°25'0 0.6
2017-Jun-22 16:29N 37°56' W 122°25'1 1.1
2017-Jun-22 16:00N 37°55' W 122°25'0 0.0
2017-Jun-22 15:30N 37°55' W 122°25'0 0.0
2017-Jun-22 14:59N 37°55' W 122°25'6 6.4
2017-Jun-22 14:00N 37°49' W 122°22'1 2.9
2017-Jun-22 13:31N 37°49' W 122°20'0 0.2
2017-Jun-22 13:00N 37°49' W 122°20'0 0.1
2017-Jun-22 12:30N 37°49' W 122°20'2 4.2
2017-Jun-22 12:00N 37°49' W 122°23'4 7.6
2017-Jun-22 11:30N 37°52' W 122°25'3 5.5
2017-Jun-22 11:00N 37°55' W 122°25'0 0.0
2017-Jun-22 10:30N 37°55' W 122°25'0 0.0
2017-Jun-22 10:00N 37°55' W 122°25'0 0.0
2017-Jun-22 09:30N 37°55' W 122°25'0 0.0
2017-Jun-22 09:00N 37°55' W 122°25'0 0.0
2017-Jun-22 08:30N 37°55' W 122°25'0 0.0
2017-Jun-22 08:00N 37°55' W 122°25'0 0.0
2017-Jun-22 07:30N 37°55' W 122°25'1 1.7
2017-Jun-22 07:00N 37°55' W 122°25'4 8.3
2017-Jun-22 06:30N 37°51' W 122°25'4 7.1
2017-Jun-22 06:00N 37°49' W 122°29'1 1.3
2017-Jun-22 05:30N 37°49' W 122°30'5 9.0
2017-Jun-22 05:00N 37°50' W 122°24'1 2.0
2017-Jun-22 04:30N 37°50' W 122°23'0 0.2
2017-Jun-22 04:00N 37°49' W 122°23'2 4.6
2017-Jun-22 03:30N 37°51' W 122°25'5 9.3
2017-Jun-22 03:00N 37°56' W 122°27'5 9.2
2017-Jun-22 02:30N 38°00' W 122°25'5 9.9
2017-Jun-22 02:00N 38°03' W 122°20'5 9.7
2017-Jun-22 01:30N 38°04' W 122°14'4 8.6
2017-Jun-22 01:00N 38°02' W 122°09'4 0.4
2017-Jun-21 15:12N 38°04' W 122°13'4 7.1
2017-Jun-21 14:41N 38°03' W 122°18'6 7.5
2017-Jun-21 13:56N 38°00' W 122°24'4 7.9
2017-Jun-21 13:27N 37°57' W 122°26'4 8.1
2017-Jun-21 13:00N 37°53' W 122°25'4 7.3
2017-Jun-21 12:30N 37°50' W 122°24'2 3.4
2017-Jun-21 12:00N 37°48' W 122°24'3 6.4
2017-Jun-21 11:31N 37°49' W 122°20'0 0.2
2017-Jun-21 11:00N 37°49' W 122°20'0 0.8
2017-Jun-21 10:31N 37°49' W 122°20'3 5.9
2017-Jun-21 10:00N 37°51' W 122°23'5 9.4
2017-Jun-21 09:30N 37°55' W 122°25'3 5.7
2017-Jun-21 09:00N 37°55' W 122°22'0 0.1
2017-Jun-21 08:30N 37°55' W 122°22'1 2.7
2017-Jun-21 08:00N 37°54' W 122°24'2 3.7
2017-Jun-21 07:30N 37°53' W 122°25'4 8.3
2017-Jun-21 07:00N 37°50' W 122°28'2 4.4
2017-Jun-21 06:31N 37°48' W 122°30'0 0.8
2017-Jun-21 06:00N 37°48' W 122°30'0 0.8
2017-Jun-21 05:30N 37°49' W 122°29'3 5.7
2017-Jun-21 05:00N 37°49' W 122°26'4 7.7
2017-Jun-21 04:31N 37°48' W 122°21'1 1.5
2017-Jun-21 04:01N 37°49' W 122°20'0 0.1
2017-Jun-21 03:30N 37°49' W 122°20'0 0.0
2017-Jun-21 03:00N 37°49' W 122°20'0 0.0
2017-Jun-21 02:30N 37°49' W 122°20'0 0.1
2017-Jun-21 02:00N 37°49' W 122°20'0 0.1
2017-Jun-21 01:30N 37°49' W 122°20'0 0.1
2017-Jun-21 01:00N 37°49' W 122°20'0 0.0
2017-Jun-21 00:30N 37°49' W 122°20'0 0.1
2017-Jun-21 00:00N 37°49' W 122°20'0 0.0
2017-Jun-20 23:30N 37°49' W 122°20'0 0.0
2017-Jun-20 23:00N 37°49' W 122°20'0 0.1
2017-Jun-20 22:30N 37°49' W 122°20'0 0.1
2017-Jun-20 22:00N 37°49' W 122°20'0 0.1
2017-Jun-20 21:30N 37°49' W 122°20'0 0.1
2017-Jun-20 21:00N 37°49' W 122°20'0 0.1
2017-Jun-20 20:30N 37°49' W 122°20'0 0.1
2017-Jun-20 20:00N 37°49' W 122°20'0 0.0
2017-Jun-20 19:30N 37°49' W 122°20'0 0.0
2017-Jun-20 19:00N 37°49' W 122°20'0 0.1
2017-Jun-20 18:30N 37°49' W 122°20'1 1.3
2017-Jun-20 18:00N 37°48' W 122°21'3 6.5
2017-Jun-20 17:30N 37°51' W 122°24'4 7.1
2017-Jun-20 17:00N 37°54' W 122°25'3 6.3
2017-Jun-20 16:28N 37°57' W 122°26'2 3.6
2017-Jun-20 16:00N 37°59' W 122°25'2 4.3
2017-Jun-20 15:30N 38°01' W 122°24'3 5.0
2017-Jun-20 15:00N 38°02' W 122°21'3 5.7
2017-Jun-20 14:30N 38°03' W 122°18'0 0.1
2017-Jun-20 12:46N 38°03' W 122°18'2 7.0
2017-Jun-20 12:29N 38°02' W 122°20'4 7.5
2017-Jun-20 11:59N 38°00' W 122°24'4 7.5
2017-Jun-20 11:30N 37°57' W 122°26'4 7.9
2017-Jun-20 11:00N 37°53' W 122°25'4 8.6
2017-Jun-20 10:31N 37°50' W 122°22'2 3.3
2017-Jun-20 10:00N 37°48' W 122°20'0 0.6
2017-Jun-20 09:30N 37°49' W 122°20'0 0.0
2017-Jun-20 09:00N 37°49' W 122°20'0 0.1
2017-Jun-20 08:30N 37°49' W 122°20'0 0.1
2017-Jun-20 08:00N 37°49' W 122°20'0 0.1
2017-Jun-20 07:30N 37°49' W 122°20'0 0.1
2017-Jun-20 07:00N 37°49' W 122°20'1 1.3
2017-Jun-20 06:30N 37°48' W 122°20'1 1.8
2017-Jun-20 05:59N 37°48' W 122°19'1 1.3
2017-Jun-20 05:30N 37°48' W 122°18'1 1.3
2017-Jun-20 05:00N 37°48' W 122°17'2 3.5
2017-Jun-20 04:30N 37°48' W 122°20'2 4.4
2017-Jun-20 04:00N 37°48' W 122°22'1 2.9
2017-Jun-20 03:30N 37°48' W 122°21'0 0.0
2017-Jun-20 03:00N 37°48' W 122°21'0 0.0
2017-Jun-20 02:30N 37°48' W 122°21'0 0.0
2017-Jun-20 02:00N 37°48' W 122°21'1 1.5
2017-Jun-20 01:31N 37°49' W 122°20'0 0.0
2017-Jun-20 01:00N 37°49' W 122°20'2 3.9
2017-Jun-20 00:30N 37°48' W 122°22'2 3.1
2017-Jun-20 00:00N 37°49' W 122°20'0 0.1
2017-Jun-19 23:30N 37°49' W 122°20'0 0.0
2017-Jun-19 23:00N 37°49' W 122°20'0 0.1
2017-Jun-19 22:30N 37°49' W 122°20'0 0.0
2017-Jun-19 22:00N 37°49' W 122°20'0 0.1
2017-Jun-19 21:30N 37°49' W 122°20'0 0.0
2017-Jun-19 21:00N 37°49' W 122°20'0 0.1
2017-Jun-19 20:30N 37°49' W 122°20'0 0.0
2017-Jun-19 20:00N 37°49' W 122°20'0 0.1
2017-Jun-19 19:30N 37°49' W 122°20'0 0.0
2017-Jun-19 19:00N 37°49' W 122°20'0 0.1
2017-Jun-19 18:30N 37°49' W 122°20'0 0.0
2017-Jun-19 18:00N 37°49' W 122°20'0 0.1
2017-Jun-19 17:30N 37°49' W 122°20'0 0.6
2017-Jun-19 17:00N 37°48' W 122°20'0 0.3
2017-Jun-19 16:30N 37°49' W 122°20'0 0.8
2017-Jun-19 16:00N 37°49' W 122°20'3 5.6
2017-Jun-19 15:30N 37°47' W 122°22'3 5.1
2017-Jun-19 15:00N 37°44' W 122°21'2 3.4
2017-Jun-19 14:31N 37°43' W 122°21'10 9.6
2017-Jun-19 13:30N 37°48' W 122°31'1 1.2
2017-Jun-19 13:00N 37°48' W 122°30'3 5.3
2017-Jun-19 12:30N 37°49' W 122°27'4 7.9
2017-Jun-19 12:00N 37°48' W 122°22'2 3.2
2017-Jun-19 11:31N 37°49' W 122°20'0 0.1
2017-Jun-19 11:00N 37°49' W 122°20'0 0.1
2017-Jun-19 10:30N 37°49' W 122°20'0 0.1
2017-Jun-19 10:00N 37°49' W 122°20'0 0.0
2017-Jun-19 09:30N 37°49' W 122°20'0 0.1
2017-Jun-19 09:00N 37°49' W 122°20'0 0.1
2017-Jun-19 08:30N 37°49' W 122°20'0 0.0
2017-Jun-19 08:00N 37°49' W 122°20'0 0.0
2017-Jun-19 07:30N 37°49' W 122°20'0 0.0
2017-Jun-19 07:00N 37°49' W 122°20'0 0.1
2017-Jun-19 06:30N 37°49' W 122°20'0 0.0
2017-Jun-19 06:00N 37°49' W 122°20'0 0.1
2017-Jun-19 05:30N 37°49' W 122°20'0 0.1
2017-Jun-19 05:00N 37°49' W 122°20'0 0.0
2017-Jun-19 04:30N 37°49' W 122°20'0 0.1
2017-Jun-19 04:00N 37°49' W 122°20'0 0.0
2017-Jun-19 03:30N 37°49' W 122°20'0 0.0
2017-Jun-19 03:00N 37°49' W 122°20'0 0.1
2017-Jun-19 02:30N 37°49' W 122°20'0 0.0
2017-Jun-19 02:00N 37°49' W 122°20'0 0.1
2017-Jun-19 01:30N 37°49' W 122°20'0 0.0
2017-Jun-19 01:00N 37°49' W 122°20'0 0.1
2017-Jun-19 00:30N 37°49' W 122°20'0 0.1
2017-Jun-19 00:00N 37°49' W 122°20'0 0.5
2017-Jun-18 23:30N 37°49' W 122°20'0 0.2
2017-Jun-18 23:00N 37°49' W 122°20'0 0.1
2017-Jun-18 22:30N 37°49' W 122°20'0 0.1
2017-Jun-18 22:00N 37°49' W 122°20'0 0.4
2017-Jun-18 21:30N 37°49' W 122°20'0 0.1
2017-Jun-18 21:00N 37°49' W 122°20'0 0.0
2017-Jun-18 20:30N 37°49' W 122°20'0 0.0
2017-Jun-18 20:00N 37°49' W 122°20'1 2.7
2017-Jun-18 19:30N 37°48' W 122°22'4 7.8
2017-Jun-18 19:00N 37°52' W 122°24'5 9.3
2017-Jun-18 18:30N 37°56' W 122°26'5 8.9
2017-Jun-18 18:00N 38°00' W 122°24'4 8.5
2017-Jun-18 17:30N 38°03' W 122°20'4 7.9
2017-Jun-18 17:00N 38°04' W 122°15'0 0.0
2017-Jun-18 07:39N 38°04' W 122°15'6 3.1
2017-Jun-18 05:51N 38°02' W 122°08'  

Dump ship's entire track history